Latest Coastal Weather Observations for Cape Nelson

IDV60701

Issued at 5:02 am EST Monday 26 September 2016 (issued every 10 minutes, with the page automatically refreshed every 10 minutes)

About coastal observations | Map of coastal stations | Coastal observations for VIC | Marine services | Other Formats
Station Details ID: 090184 Name: CAPE NELSON LIGHTHOUSE Lat: -38.43 Lon: 141.54 Height: 45.4 m
Data from the previous 72 hours. | See also: Recent months at Cape Nelson
Date/Time
EST
Temp
°C
Wind Pressure Rain since
9am
mm
Weather Cloud Vis
km
Sea
Height
m
Swell
Dir  Spd
kts
Gust
kts
hPa Trend Height
m
Period
s
Dir
26/05:00am 7.8 NNW 9 13 1011.0 - 0.0 - - - - - - -
26/04:30am 8.0 NNW 10 13 1011.0 - 0.0 - - - - - - -
26/04:00am 8.3 NNW 11 14 1011.0 - 0.0 - - - - - - -
26/03:30am 8.3 NNW 10 14 1011.2 - 0.0 - - - - - - -
26/03:00am 8.5 NNW 8 12 1011.6 - 0.0 - - - - - - -
26/02:30am 8.8 NNW 10 18 1011.9 - 0.0 - - - - - - -
26/02:00am 8.9 NNW 9 11 1012.2 - 0.0 - - - - - - -
26/01:30am 9.2 NNW 8 12 1012.5 - 0.0 - - - - - - -
26/01:00am 9.3 NNW 10 13 1012.7 - 0.0 - - - - - - -
26/12:30am 9.9 NW 6 8 1013.0 - 0.0 - - - - - - -
26/12:00am 10.2 WNW 11 15 1013.1 - 0.0 - - - - - - -
 
Date/Time
EST
Temp
°C
Wind Pressure Rain since
9am
mm
Weather Cloud Vis
km
Sea
Height
m
Swell
Dir  Spd
kts
Gust
kts
hPa Trend Height
m
Period
s
Dir
25/11:30pm 9.5 NNW 10 15 1013.2 - 0.0 - - - - - - -
25/11:00pm 9.4 NNW 9 12 1013.2 - 0.0 - - - - - - -
25/10:30pm 9.5 NNW 8 11 1013.5 - 0.0 - - - - - - -
25/10:00pm 9.3 NNW 6 8 1013.5 - 0.0 - - - - - - -
25/09:30pm 10.2 NNW 7 9 1013.4 - 0.0 - - - - - - -
25/09:00pm 11.0 NW 9 12 1013.5 - 0.0 - - - - - - -
25/08:30pm 10.9 WNW 9 14 1013.6 - 0.0 - - - - - - -
25/08:00pm 11.0 WNW 9 12 1013.5 - 0.0 - - - - - - -
25/07:30pm 10.8 WNW 11 14 1013.2 - 0.0 - - - - - - -
25/07:00pm 10.7 WNW 9 12 1013.0 - 0.0 - - - - - - -
25/06:30pm 10.9 WNW 9 11 1012.6 - 0.0 - - - - - - -
25/06:00pm 11.4 WNW 10 13 1012.4 - 0.0 - - - - - - -
25/05:30pm 11.8 WNW 10 15 1012.1 - 0.0 - - - - - - -
25/05:00pm 12.4 WNW 11 15 1012.2 - 0.0 - - - - - - -
25/04:30pm 12.4 WNW 9 15 1012.1 - 0.0 - - - - - - -
25/04:00pm 13.0 W 10 14 1011.9 - 0.0 - - - - - - -
25/03:30pm 13.3 W 10 16 1011.9 - 0.0 - - - - - - -
25/03:00pm 13.2 W 9 13 1012.1 - 0.0 - - - - - - -
25/02:30pm 12.6 W 11 17 1012.2 - 0.0 - - - - - - -
25/02:00pm 12.3 W 9 17 1012.3 - 0.0 - - - - - - -
25/01:30pm 12.7 W 11 18 1012.3 - 0.0 - - - - - - -
25/01:00pm 12.1 W 12 17 1012.2 - 0.0 - - - - - - -
25/12:30pm 12.4 W 12 19 1012.6 - 0.0 - - - - - - -
25/12:00pm 12.1 W 13 19 1012.5 - 0.0 - - - - - - -
25/11:30am 11.6 W 13 21 1012.8 - 0.0 - - - - - - -
25/11:00am 12.4 W 14 21 1012.7 - 0.0 - - - - - - -
25/10:30am 11.7 W 16 22 1012.6 - 0.0 - - - - - - -
25/10:00am 11.7 W 15 22 1012.4 - 0.0 - - - - - - -
25/09:30am 11.7 W 15 22 1012.1 - 0.0 - - - - - - -
25/09:00am 11.2 W 14 19 1012.0 - 11.8 - - - - - - -
25/08:30am 11.3 WNW 12 19 1011.6 - 11.8 - - - - - - -
25/08:00am 10.9 W 14 21 1011.2 - 11.8 - - - - - - -
25/07:30am 10.7 NW 12 23 1010.7 - 11.8 - - - - - - -
25/07:00am 10.6 WNW 14 22 1010.0 - 11.8 - - - - - - -
25/06:39am 10.6 WNW 15 25 1010.1 - 11.8 - - - - - - -
25/06:30am 10.2 WNW 16 24 1009.9 - 11.8 - - - - - - -
25/06:00am 9.0 WNW 14 28 1009.7 - 11.8 Rain - - - - - -
25/05:30am 10.4 W 19 27 1009.3 - 11.4 - - - - - - -
25/05:03am 10.5 W 16 28 1008.9 - 10.6 - - - - - - -
25/05:00am 10.7 W 17 24 1008.9 - 10.6 - - - - - - -
25/04:52am 10.7 W 17 27 1008.8 - 10.6 - - - - - - -
25/04:30am 10.6 W 18 25 1008.7 - 10.6 - - - - - - -
25/04:02am 10.7 W 18 28 1008.4 - 10.6 - - - - - - -
25/04:00am 10.9 W 19 28 1008.4 - 10.6 - - - - - - -
25/03:57am 10.6 W 17 28 1008.4 - 10.6 - - - - - - -
25/03:30am 10.8 W 21 29 1008.0 - 10.6 - - - - - - -
25/03:00am 10.6 W 18 31 1008.0 - 10.6 Recent precip. - - - - - -
25/02:32am 10.1 W 18 28 1008.2 - 10.2 - - - - - - -
25/02:30am 10.0 W 19 28 1008.2 - 10.2 - - - - - - -
25/02:04am 10.8 W 15 25 1008.0 - 10.2 - - - - - - -
25/02:00am 10.7 W 15 22 1008.0 - 10.2 - - - - - - -
25/01:45am 10.7 W 15 26 1007.9 - 10.2 - - - - - - -
25/01:30am 10.4 W 15 22 1008.1 - 10.2 - - - - - - -
25/01:00am 10.4 W 21 33 1007.9 - 10.2 - - - - - - -
25/12:33am 11.0 W 16 26 1007.9 - 10.2 - - - - - - -
25/12:30am 11.2 W 17 26 1007.8 - 10.2 - - - - - - -
25/12:19am 11.0 W 18 28 1007.8 - 10.2 - - - - - - -
25/12:00am 11.4 W 22 29 1007.6 - 10.2 - - - - - - -
 
Date/Time
EST
Temp
°C
Wind Pressure Rain since
9am
mm
Weather Cloud Vis
km
Sea
Height
m
Swell
Dir  Spd
kts
Gust
kts
hPa Trend Height
m
Period
s
Dir
24/11:30pm 11.4 W 19 25 1007.6 - 10.2 - - - - - - -
24/11:00pm 11.3 W 19 27 1007.4 - 10.2 - - - - - - -
24/10:53pm 11.4 W 17 27 1007.3 - 10.2 - - - - - - -
24/10:30pm 11.8 W 19 25 1007.5 - 10.2 - - - - - - -
24/10:00pm 11.6 W 17 23 1007.3 - 10.2 - - - - - - -
24/09:30pm 12.0 W 18 24 1007.1 - 10.2 - - - - - - -
24/09:00pm 11.9 W 18 24 1006.8 - 10.2 - - - - - - -
24/08:30pm 11.8 NW 13 22 1006.3 - 10.2 - - - - - - -
24/08:00pm 12.4 W 18 25 1006.2 - 10.2 - - - - - - -
24/07:30pm 12.3 WNW 15 23 1005.6 - 10.2 - - - - - - -
24/07:00pm 11.9 WNW 15 22 1004.9 - 10.2 - - - - - - -
24/06:44pm 12.2 WNW 15 25 1004.5 - 10.2 - - - - - - -
24/06:30pm 12.1 WNW 14 21 1004.2 - 10.2 - - - - - - -
24/06:01pm 12.1 WNW 17 27 1003.6 - 10.2 - - - - - - -
24/06:00pm 12.1 WNW 18 27 1003.5 - 10.2 Recent precip. - - - - - -
24/05:35pm 11.8 WNW 15 25 1002.8 - 10.2 - - - - - - -
24/05:30pm 12.1 WNW 15 23 1002.6 - 9.8 - - - - - - -
24/05:13pm 12.4 NW 13 34 1002.6 - 8.6 - - - - - - -
24/05:00pm 13.0 NNW 12 17 1002.3 - 6.6 - - - - - - -
24/04:30pm 13.2 NNW 12 18 1002.1 - 4.2 - - - - - - -
24/04:00pm 13.0 N 12 19 1001.7 - 3.8 - - - - - - -
24/03:30pm 13.1 N 11 16 1002.1 - 3.8 - - - - - - -
24/03:00pm 13.6 N 10 18 1002.4 - 2.6 Rain - - - - - -
24/02:30pm 13.6 NNW 11 15 1002.5 - 1.6 - - - - - - -
24/02:00pm 13.7 NNW 10 15 1002.5 - 0.8 - - - - - - -
24/01:30pm 13.6 NNW 10 16 1002.8 - 0.8 - - - - - - -
24/01:00pm 14.6 NNW 12 22 1003.0 - 0.2 - - - - - - -
24/12:30pm 16.0 NNW 14 21 1003.2 - 0.0 - - - - - - -
24/12:00pm 17.1 NNW 15 22 1003.1 - 0.0 - - - - - - -
24/11:30am 16.8 NNW 14 20 1003.2 - 0.0 - - - - - - -
24/11:00am 16.3 NNW 16 22 1003.5 - 0.0 - - - - - - -
24/10:30am 15.3 N 15 25 1003.7 - 0.0 - - - - - - -
24/10:28am 15.2 N 15 25 1003.8 - 0.0 - - - - - - -
24/10:00am 14.5 N 17 25 1003.9 - 0.0 - - - - - - -
24/09:40am 13.8 N 16 26 1004.0 - 0.0 - - - - - - -
24/09:30am 13.5 N 17 25 1004.0 - 0.0 - - - - - - -
24/09:00am 12.5 N 16 24 1004.0 - 0.0 - - - - - - -
24/08:30am 12.0 N 17 24 1004.0 - 0.0 - - - - - - -
24/08:00am 11.5 N 13 21 1004.2 - 0.0 - - - - - - -
24/07:30am 11.2 N 14 20 1004.6 - 0.0 - - - - - - -
24/07:00am 11.0 N 15 24 1004.9 - 0.0 - - - - - - -
24/06:30am 10.2 N 14 18 1005.1 - 0.0 - - - - - - -
24/06:00am 9.8 N 14 20 1005.1 - 0.0 - - - - - - -
24/05:30am 9.7 N 13 18 1005.0 - 0.0 - - - - - - -
24/05:00am 9.7 N 15 21 1005.0 - 0.0 - - - - - - -
24/04:30am 9.7 N 15 21 1005.4 - 0.0 - - - - - - -
24/04:00am 9.8 NNE 13 20 1005.8 - 0.0 - - - - - - -
24/03:30am 10.0 NNE 15 19 1006.1 - 0.0 - - - - - - -
24/03:00am 9.8 NNE 12 17 1006.7 - 0.0 - - - - - - -
24/02:30am 9.8 NNE 11 16 1007.1 - 0.0 - - - - - - -
24/02:00am 10.2 NNE 12 18 1007.6 - 0.0 - - - - - - -
24/01:30am 10.6 NNE 12 18 1008.0 - 0.0 - - - - - - -
24/01:00am 10.8 N 10 17 1008.2 - 0.0 - - - - - - -
24/12:30am 10.7 N 9 13 1008.3 - 0.0 - - - - - - -
24/12:00am 10.6 N 9 12 1008.5 - 0.0 - - - - - - -
 
Date/Time
EST
Temp
°C
Wind Pressure Rain since
9am
mm
Weather Cloud Vis
km
Sea
Height
m
Swell
Dir  Spd
kts
Gust
kts
hPa Trend Height
m
Period
s
Dir
23/11:30pm 10.7 N 11 16 1008.7 - 0.0 - - - - - - -
23/11:00pm 10.3 N 8 11 1009.1 - 0.0 - - - - - - -
23/10:30pm 10.2 N 8 11 1009.5 - 0.0 - - - - - - -
23/10:00pm 10.0 N 8 11 1009.8 - 0.0 - - - - - - -
23/09:30pm 10.7 NNE 7 10 1010.1 - 0.0 - - - - - - -
23/09:00pm 11.3 NE 7 9 1010.3 - 0.0 - - - - - - -
23/08:30pm 11.4 ENE 7 10 1010.5 - 0.0 - - - - - - -
23/08:00pm 10.4 NE 7 8 1010.5 - 0.0 - - - - - - -
23/07:30pm 10.4 NNE 6 7 1010.7 - 0.0 - - - - - - -
23/07:00pm 11.5 NNE 5 6 1010.4 - 0.0 - - - - - - -
23/06:30pm 12.4 NE 6 8 1010.2 - 0.0 - - - - - - -
23/06:00pm 13.2 NE 5 8 1010.2 - 0.0 - - - - - - -
23/05:30pm 13.5 NE 7 9 1009.9 - 0.0 - - - - - - -
23/05:00pm 14.6 ENE 8 12 1010.0 - 0.0 - - - - - - -
23/04:30pm 14.2 ENE 8 11 1010.3 - 0.0 - - - - - - -
23/04:00pm 14.4 ENE 9 12 1010.5 - 0.0 - - - - - - -
23/03:30pm 14.2 E 11 14 1010.7 - 0.0 - - - - - - -
23/03:00pm 14.1 E 12 14 1011.1 - 0.0 - - - - - - -
23/02:30pm 14.2 E 11 15 1011.4 - 0.0 - - - - - - -
23/02:00pm 14.4 E 11 15 1011.9 - 0.0 - - - - - - -
23/01:30pm 13.8 E 10 14 1012.5 - 0.0 - - - - - - -
23/01:00pm 13.2 E 11 15 1013.1 - 0.0 - - - - - - -
23/12:30pm 12.9 E 10 15 1013.8 - 0.0 - - - - - - -
23/12:00pm 14.2 ENE 10 14 1014.2 - 0.0 - - - - - - -
23/11:30am 13.1 ENE 11 14 1014.7 - 0.0 - - - - - - -
23/11:00am 11.8 ENE 12 16 1015.3 - 0.0 - - - - - - -
23/10:30am 12.1 ENE 12 16 1015.7 - 0.0 - - - - - - -
23/10:00am 11.6 NE 11 16 1016.3 - 0.0 - - - - - - -
23/09:30am 12.3 NE 9 15 1016.6 - 0.0 - - - - - - -
23/09:00am 11.3 NE 8 11 1017.0 - 0.0 - - - - - - -
23/08:30am 10.8 NE 8 11 1017.2 - 0.0 - - - - - - -
23/08:00am 9.6 N 5 7 1017.6 - 0.0 - - - - - - -
23/07:30am 8.6 N 5 7 1017.7 - 0.0 - - - - - - -
23/07:00am 8.1 N 6 8 1017.6 - 0.0 - - - - - - -
23/06:30am 7.8 N 4 5 1017.6 - 0.0 - - - - - - -
23/06:00am 7.8 N 5 6 1017.4 - 0.0 - - - - - - -
23/05:30am 7.8 N 5 6 1017.4 - 0.0 - - - - - - -

Other Formats:

Comma delimited format used in spreadsheet applications
http://www.bom.gov.au/fwo/IDV60701/IDV60701.94826.axf

JavaScript Object Notation format (JSON) in row-major order
http://www.bom.gov.au/fwo/IDV60701/IDV60701.94826.json